Time;durP1;ratioP1;P1;durP2;ratioP2;P2;SDS_P1;SDS_P2;PMS_P1;PMS_P2;Temp;Humidity;BMP_temperature;BMP_pressure;BME280_temperature;BME280_humidity;BME280_pressure;Samples;Min_cycle;Max_cycle;Signal;HPM_P1;HPM_P2
2024/04/14 00:01:20;;;;;;;4.90;3.33;;;15.00;99.90;;;;;;5378397;26;20005;-96
2024/04/14 00:03:57;;;;;;;4.93;3.00;;;15.00;99.90;;;;;;5353287;26;20017;-96
2024/04/14 00:06:26;;;;;;;8.70;3.03;;;14.90;99.90;;;;;;5342326;26;20020;-96
2024/04/14 00:08:57;;;;;;;7.28;2.83;;;14.90;99.90;;;;;;5360024;26;20021;-96
2024/04/14 00:11:25;;;;;;;7.43;2.65;;;14.90;99.90;;;;;;5350012;26;20048;-96
2024/04/14 00:13:59;;;;;;;10.00;3.75;;;14.80;99.90;;;;;;5360202;26;20041;-96
2024/04/14 00:16:27;;;;;;;7.47;2.88;;;14.80;99.90;;;;;;5348669;26;20001;-96
2024/04/14 00:18:58;;;;;;;6.65;3.25;;;14.80;99.90;;;;;;5373632;26;20001;-96
2024/04/14 00:21:26;;;;;;;7.38;3.83;;;15.00;99.90;;;;;;5350293;26;20015;-96
2024/04/14 00:23:57;;;;;;;7.63;3.17;;;14.90;99.90;;;;;;5355262;26;20451;-96
2024/04/14 00:26:25;;;;;;;6.95;3.28;;;15.10;99.90;;;;;;5356783;26;20005;-96
2024/04/14 00:29:03;;;;;;;7.93;3.47;;;14.90;99.90;;;;;;5342179;26;20017;-96
2024/04/14 00:31:33;;;;;;;5.47;3.25;;;14.90;99.90;;;;;;5348235;26;20027;-96
2024/04/14 00:34:04;;;;;;;10.75;3.80;;;14.80;99.90;;;;;;5344867;26;20668;-96
2024/04/14 00:36:32;;;;;;;8.38;3.33;;;14.80;99.90;;;;;;5344453;26;20005;-96
2024/04/14 00:39:03;;;;;;;4.90;2.92;;;14.80;99.90;;;;;;5343285;26;21321;-96
2024/04/14 00:41:32;;;;;;;6.07;3.53;;;14.80;99.90;;;;;;5345230;26;20006;-96
2024/04/14 00:44:05;;;;;;;5.50;2.97;;;14.80;99.90;;;;;;5355104;26;20029;-96
2024/04/14 00:46:33;;;;;;;9.48;4.03;;;14.80;99.90;;;;;;5357519;26;20001;-96
2024/04/14 00:49:05;;;;;;;6.22;3.25;;;15.30;99.90;;;;;;5363912;26;20016;-96
2024/04/14 00:51:33;;;;;;;6.82;3.40;;;14.80;99.90;;;;;;5368901;26;20604;-96
2024/04/14 00:54:06;;;;;;;4.90;3.65;;;15.10;99.90;;;;;;5395661;26;20000;-96
2024/04/14 00:56:35;;;;;;;6.05;3.03;;;14.70;99.90;;;;;;5383642;26;20012;-96
2024/04/14 00:59:09;;;;;;;6.80;3.55;;;14.60;99.90;;;;;;5361273;26;20013;-96
2024/04/14 01:01:37;;;;;;;6.75;3.95;;;14.80;99.90;;;;;;5357878;26;20005;-96
2024/04/14 01:16:49;;;;;;;4.85;3.13;;;14.70;99.90;;;;;;5966723;22;20022;-96
2024/04/14 01:19:17;;;;;;;6.88;3.00;;;15.00;99.90;;;;;;5221931;27;20014;-96
2024/04/14 01:21:54;;;;;;;9.85;3.42;;;15.00;99.90;;;;;;5244121;27;20285;-96
2024/04/14 01:24:23;;;;;;;7.38;3.80;;;15.00;99.90;;;;;;5221823;27;20011;-96
2024/04/14 01:26:56;;;;;;;5.78;3.38;;;14.60;99.90;;;;;;5215602;27;20087;-95
2024/04/14 01:29:24;;;;;;;6.97;3.03;;;14.60;99.90;;;;;;5207733;27;20031;-96
2024/04/14 01:31:55;;;;;;;9.02;3.63;;;14.60;99.90;;;;;;5202751;27;20018;-96
2024/04/14 01:34:23;;;;;;;7.97;3.65;;;14.40;99.90;;;;;;5207881;27;20534;-96
2024/04/14 01:36:54;;;;;;;7.25;3.45;;;14.50;99.90;;;;;;5214633;27;20530;-96
2024/04/14 01:39:23;;;;;;;5.10;3.35;;;14.50;99.90;;;;;;5214087;27;20004;-96
2024/04/14 01:41:58;;;;;;;5.93;3.20;;;14.50;99.90;;;;;;5213639;27;20463;-96
2024/04/14 01:44:26;;;;;;;5.32;3.20;;;14.80;99.90;;;;;;5222897;27;20023;-96
2024/04/14 01:47:01;;;;;;;9.30;3.72;;;14.30;99.90;;;;;;5218818;27;20019;-96
2024/04/14 02:00:16;;;;;;;6.38;3.92;;;16.10;99.90;;;;;;6648978;20;1363272;-96
2024/04/14 02:02:44;;;;;;;7.05;3.38;;;14.20;99.90;;;;;;6565015;21;20017;-96
2024/04/14 02:05:15;;;;;;;5.88;3.30;;;14.10;99.90;;;;;;6564613;21;20008;-96
2024/04/14 02:46:18;;;;;;;7.40;3.28;;;13.60;99.90;;;;;;6569497;21;20004;-95
2024/04/14 02:48:51;;;;;;;5.28;3.17;;;13.60;99.90;;;;;;6515633;22;20052;-95
2024/04/14 02:51:23;;;;;;;7.35;3.42;;;13.20;99.90;;;;;;6560357;22;20306;-96
2024/04/14 02:53:51;;;;;;;5.72;3.00;;;13.50;99.90;;;;;;6562635;22;20012;-96
2024/04/14 02:56:22;;;;;;;5.30;3.17;;;13.50;99.90;;;;;;6560452;22;20017;-95
2024/04/14 02:58:50;;;;;;;9.75;3.65;;;13.50;99.90;;;;;;6560150;22;20001;-96
2024/04/14 03:01:24;;;;;;;9.55;3.58;;;13.50;99.90;;;;;;6553208;22;20001;-96
2024/04/14 03:03:53;;;;;;;5.95;3.03;;;13.40;99.90;;;;;;6466276;22;20001;-96
2024/04/14 03:06:24;;;;;;;6.70;3.45;;;14.80;99.90;;;;;;6548397;21;20008;-96
2024/04/14 03:08:52;;;;;;;7.00;2.90;;;13.40;99.90;;;;;;6545187;22;20012;-96
2024/04/14 03:11:23;;;;;;;9.63;3.78;;;13.30;99.90;;;;;;6549847;22;20032;-96
2024/04/14 03:13:51;;;;;;;12.98;3.67;;;13.30;99.90;;;;;;6545128;22;20005;-95
2024/04/14 03:16:28;;;;;;;9.43;3.85;;;13.30;99.90;;;;;;6546334;22;20005;-96
2024/04/14 03:18:57;;;;;;;7.78;3.97;;;12.90;99.90;;;;;;6546378;22;20001;-95
2024/04/14 03:21:29;;;;;;;7.85;4.15;;;13.40;99.90;;;;;;6548567;22;20005;-95
2024/04/14 03:23:57;;;;;;;8.35;4.18;;;12.30;99.90;;;;;;6501467;22;20005;-95
2024/04/14 03:26:28;;;;;;;5.75;4.00;;;13.40;99.90;;;;;;6537101;22;20037;-96
2024/04/14 03:28:58;;;;;;;6.45;3.45;;;14.80;99.90;;;;;;6543690;22;20004;-96
2024/04/14 03:31:39;;;;;;;9.85;3.80;;;13.60;99.90;;;;;;6553398;21;21043;-95
2024/04/14 03:34:07;;;;;;;6.25;3.47;;;13.00;99.90;;;;;;6552158;21;20012;-96
2024/04/14 03:36:38;;;;;;;6.22;3.97;;;13.30;99.90;;;;;;6550172;21;19996;-94
2024/04/14 03:39:10;;;;;;;7.57;3.80;;;13.60;99.90;;;;;;6550737;21;20029;-94
2024/04/14 03:41:42;;;;;;;7.93;3.90;;;13.00;99.90;;;;;;6547253;21;20040;-95
2024/04/14 03:44:17;;;;;;;9.02;4.15;;;12.90;99.90;;;;;;6556133;21;20048;-95
2024/04/14 03:46:53;;;;;;;7.53;3.50;;;12.90;99.90;;;;;;6560253;21;19996;-96
2024/04/14 03:49:21;;;;;;;7.38;3.88;;;13.40;99.90;;;;;;6555895;21;20524;-95
2024/04/14 03:51:53;;;;;;;6.38;3.45;;;12.90;99.90;;;;;;6597055;21;20004;-96
2024/04/14 03:54:22;;;;;;;9.40;3.75;;;12.80;99.90;;;;;;6547185;21;19992;-96
2024/04/14 03:56:53;;;;;;;9.80;4.45;;;12.80;99.90;;;;;;6546422;21;20702;-96
2024/04/14 03:59:27;;;;;;;5.72;3.75;;;12.70;99.90;;;;;;6590209;21;20004;-94
2024/04/14 05:11:07;;;;;;;16.92;5.20;;;13.10;99.90;;;;;;6601855;21;19917;-95
2024/04/14 05:28:59;;;;;;;11.68;5.82;;;13.60;99.90;;;;;;6601567;21;20023;-95
2024/04/14 05:31:31;;;;;;;11.45;5.47;;;13.70;99.90;;;;;;6513363;21;20040;-95
2024/04/14 05:33:59;;;;;;;9.20;5.47;;;13.80;99.90;;;;;;6556560;21;20033;-96
2024/04/14 05:36:30;;;;;;;12.13;6.00;;;13.90;99.90;;;;;;6553287;21;20007;-96
2024/04/14 05:38:58;;;;;;;10.38;5.38;;;14.00;99.90;;;;;;6601580;21;20008;-94
2024/04/14 05:41:30;;;;;;;9.57;5.10;;;14.20;99.90;;;;;;6596092;21;19996;-96
2024/04/14 05:44:01;;;;;;;17.80;6.25;;;14.20;99.90;;;;;;6538388;21;19996;-96
2024/04/14 05:46:32;;;;;;;12.25;6.88;;;14.30;99.90;;;;;;6548225;21;20013;-96
2024/04/14 05:49:06;;;;;;;9.88;5.13;;;14.80;99.90;;;;;;6604268;21;20042;-96
2024/04/14 05:51:49;;;;;;;10.85;6.10;;;16.10;99.90;;;;;;6608558;21;20000;-96
2024/04/14 05:54:20;;;;;;;11.80;6.88;;;14.70;99.90;;;;;;6560825;21;20004;-96
2024/04/14 05:56:48;;;;;;;9.63;5.67;;;14.60;99.90;;;;;;6543376;21;20001;-96
2024/04/14 05:59:22;;;;;;;10.18;5.60;;;14.70;99.90;;;;;;6490203;21;20028;-95
2024/04/14 06:01:52;;;;;;;12.10;6.40;;;14.80;99.90;;;;;;6598170;21;20000;-96
2024/04/14 06:04:25;;;;;;;;;;;14.90;99.90;;;;;;6559193;21;20039;-96
2024/04/14 06:06:53;;;;;;;12.18;6.40;;;15.00;99.90;;;;;;6558403;21;19960;-96
2024/04/14 06:09:24;;;;;;;11.07;6.32;;;15.60;99.90;;;;;;6541569;21;20052;-96
2024/04/14 06:12:03;;;;;;;8.55;6.03;;;17.10;99.90;;;;;;6528252;21;20001;-96
2024/04/14 06:14:36;;;;;;;10.50;5.45;;;15.50;99.90;;;;;;6531226;22;20075;-93
2024/04/14 06:17:04;;;;;;;12.85;6.57;;;15.80;99.90;;;;;;6527472;22;20001;-94
2024/04/14 06:19:35;;;;;;;8.95;5.60;;;16.00;99.90;;;;;;6529766;22;20303;-95
2024/04/14 06:22:03;;;;;;;9.05;6.20;;;16.20;99.90;;;;;;6518007;22;20002;-95
2024/04/14 06:24:35;;;;;;;10.20;5.72;;;16.80;99.90;;;;;;6529903;22;20566;-95
2024/04/14 06:27:03;;;;;;;11.52;5.85;;;16.50;99.90;;;;;;6528042;22;19997;-96
2024/04/14 06:29:36;;;;;;;9.57;6.68;;;16.70;99.90;;;;;;6524279;22;20041;-95
2024/04/14 06:32:05;;;;;;;13.48;5.65;;;16.90;99.90;;;;;;6521587;22;20009;-95
2024/04/14 06:34:36;;;;;;;10.15;5.75;;;17.00;99.90;;;;;;6526848;21;20005;-96
2024/04/14 06:37:04;;;;;;;10.07;5.57;;;17.20;99.90;;;;;;6528778;21;20473;-94
2024/04/14 06:39:35;;;;;;;10.50;6.15;;;17.40;99.90;;;;;;6524704;22;20201;-94
2024/04/14 06:42:07;;;;;;;10.35;5.63;;;17.60;99.90;;;;;;6527789;22;20119;-96
2024/04/14 06:44:53;;;;;;;16.02;6.43;;;17.70;99.90;;;;;;6546896;21;20004;-78
2024/04/14 06:47:25;;;;;;;9.10;5.68;;;18.00;99.90;;;;;;6550821;22;19981;-81
2024/04/14 06:50:17;;;;;;;10.07;5.80;;;18.10;99.90;;;;;;6500781;21;19998;-84
2024/04/14 06:53:04;;;;;;;12.98;5.22;;;17.10;99.90;;;;;;6454312;22;19993;-84
2024/04/14 06:59:15;;;;;;;10.77;5.72;;;18.50;99.90;;;;;;6589393;21;20008;-82
2024/04/14 07:02:08;;;;;;;12.05;4.70;;;18.80;99.90;;;;;;6402351;22;20007;-80
2024/04/14 07:04:45;;;;;;;11.88;4.97;;;18.80;99.90;;;;;;6400639;22;20018;-85
2024/04/14 07:07:32;;;;;;;10.07;5.53;;;19.40;99.90;;;;;;6405773;22;19995;-85
2024/04/14 07:10:08;;;;;;;9.15;5.88;;;18.90;99.90;;;;;;6444527;22;20002;-82
2024/04/14 07:13:24;;;;;;;7.22;4.95;;;19.10;99.90;;;;;;6445048;22;20014;-84
2024/04/14 07:15:52;;;;;;;10.75;4.30;;;19.30;99.90;;;;;;6442395;22;19995;-79
2024/04/14 07:18:27;;;;;;;9.60;4.60;;;19.50;99.90;;;;;;6442883;22;20005;-82
2024/04/14 07:21:25;;;;;;;7.18;3.88;;;19.90;99.90;;;;;;6416547;21;20011;-94
2024/04/14 07:23:53;;;;;;;7.47;4.45;;;20.00;99.90;;;;;;6533338;21;20283;-92
2024/04/14 07:26:23;;;;;;;8.88;4.43;;;20.10;99.90;;;;;;6578836;21;20067;-90
2024/04/14 07:28:51;;;;;;;6.95;4.38;;;20.30;99.70;;;;;;6533175;21;20001;-94
2024/04/14 07:31:22;;;;;;;8.02;4.35;;;20.50;99.30;;;;;;6535142;21;20015;-92
2024/04/14 07:33:59;;;;;;;9.43;3.80;;;20.60;98.30;;;;;;6576951;21;20004;-93
2024/04/14 07:36:31;;;;;;;6.82;3.90;;;20.70;98.10;;;;;;6534164;21;20012;-92
2024/04/14 07:38:59;;;;;;;6.93;4.25;;;20.70;97.50;;;;;;6532194;21;20001;-92
2024/04/14 07:41:30;;;;;;;6.80;4.55;;;20.60;97.10;;;;;;6533575;21;19997;-92
2024/04/14 07:43:58;;;;;;;5.68;3.72;;;21.00;97.80;;;;;;6534024;21;20044;-91
2024/04/14 07:46:29;;;;;;;8.65;4.82;;;21.10;97.40;;;;;;6534121;21;20024;-92
2024/04/14 07:49:00;;;;;;;8.85;4.22;;;21.10;97.20;;;;;;6534098;21;20000;-95
2024/04/14 07:51:31;;;;;;;7.18;3.17;;;22.10;98.40;;;;;;6539390;21;20421;-93
2024/04/14 07:53:59;;;;;;;7.55;3.67;;;21.60;97.70;;;;;;6545786;21;20007;-94
2024/04/14 07:56:29;;;;;;;6.75;3.25;;;21.60;95.80;;;;;;6575217;21;20016;-96
2024/04/14 07:58:57;;;;;;;4.00;2.92;;;21.90;95.80;;;;;;6542300;21;19997;-92
2024/04/14 08:01:28;;;;;;;7.85;3.33;;;21.90;95.10;;;;;;6540809;21;20056;-95
2024/04/14 08:04:01;;;;;;;4.03;2.90;;;22.10;94.70;;;;;;6563564;21;20000;-93
2024/04/14 08:06:35;;;;;;;3.85;3.13;;;23.10;95.80;;;;;;6540913;21;19996;-93
2024/04/14 08:09:03;;;;;;;5.93;2.78;;;22.60;93.90;;;;;;6539323;21;20074;-93
2024/04/14 08:11:34;;;;;;;3.80;2.33;;;22.70;93.10;;;;;;6538585;21;20004;-96
2024/04/14 08:14:02;;;;;;;7.68;3.40;;;22.60;93.00;;;;;;6585642;21;20408;-93
2024/04/14 08:16:33;;;;;;;9.55;2.78;;;22.90;92.50;;;;;;6536141;21;20070;-94
2024/04/14 08:19:04;;;;;;;5.85;2.40;;;23.00;92.50;;;;;;6532647;21;20313;-88
2024/04/14 08:21:35;;;;;;;7.55;2.72;;;22.80;92.00;;;;;;6539902;21;20009;-94
2024/04/14 08:24:06;;;;;;;3.25;2.53;;;23.00;91.60;;;;;;6581415;21;20040;-90
2024/04/14 08:26:37;;;;;;;4.47;2.60;;;23.30;91.90;;;;;;6581782;21;20429;-92
2024/04/14 08:29:05;;;;;;;4.80;2.40;;;23.40;91.00;;;;;;6584087;21;20012;-94
2024/04/14 08:31:37;;;;;;;4.28;2.70;;;24.10;92.20;;;;;;6534449;21;20294;-91
2024/04/14 08:34:08;;;;;;;7.72;2.85;;;23.80;90.70;;;;;;6536442;21;20028;-89
2024/04/14 08:36:39;;;;;;;5.65;2.97;;;24.00;90.70;;;;;;6578772;21;20028;-93
2024/04/14 08:39:07;;;;;;;3.80;2.25;;;24.10;89.00;;;;;;6579658;21;20008;-89
2024/04/14 08:41:41;;;;;;;5.65;2.65;;;24.10;89.80;;;;;;6535842;21;20010;-93
2024/04/14 08:44:12;;;;;;;4.32;2.00;;;24.10;87.30;;;;;;6533468;21;20048;-92
2024/04/14 08:46:44;;;;;;;5.80;2.58;;;24.30;87.50;;;;;;6534896;21;20016;-94
2024/04/14 08:49:16;;;;;;;6.07;2.00;;;25.70;87.40;;;;;;6535221;21;20008;-95
2024/04/14 08:51:51;;;;;;;4.65;2.30;;;24.30;86.30;;;;;;6538084;21;20000;-85
2024/04/14 08:54:18;;;;;;;5.65;2.03;;;24.30;86.20;;;;;;6490216;21;20417;-88
2024/04/14 08:56:52;;;;;;;6.78;2.35;;;24.30;86.60;;;;;;6528791;21;20016;-87
2024/04/14 08:59:22;;;;;;;2.92;1.98;;;24.40;85.90;;;;;;6571750;21;20005;-87
2024/04/14 09:01:56;;;;;;;6.35;1.92;;;24.40;84.20;;;;;;6529819;21;20008;-88
2024/04/14 09:04:28;;;;;;;9.48;3.47;;;24.50;85.30;;;;;;6578544;21;20323;-87
2024/04/14 09:06:59;;;;;;;5.22;2.38;;;24.50;86.10;;;;;;6490769;21;20028;-90
2024/04/14 09:09:26;;;;;;;4.32;2.72;;;24.70;85.60;;;;;;6532519;21;20001;-90
2024/04/14 09:11:59;;;;;;;2.80;1.98;;;24.70;84.30;;;;;;6578705;21;20001;-90
2024/04/14 09:14:27;;;;;;;3.70;2.15;;;24.70;84.50;;;;;;6578652;21;20000;-90
2024/04/14 09:16:57;;;;;;;6.65;2.35;;;24.60;82.90;;;;;;6579072;21;20026;-90
2024/04/14 09:19:28;;;;;;;6.45;2.35;;;24.60;84.70;;;;;;6529111;21;20008;-89
2024/04/14 09:22:04;;;;;;;5.13;2.42;;;24.60;82.90;;;;;;6530639;21;20413;-92
2024/04/14 09:24:32;;;;;;;6.05;2.40;;;24.70;83.40;;;;;;6528368;21;20005;-87
2024/04/14 09:27:04;;;;;;;5.65;2.50;;;24.70;85.20;;;;;;6488089;21;20000;-89
2024/04/14 09:29:33;;;;;;;4.70;2.30;;;25.00;84.50;;;;;;6534954;21;20039;-91
2024/04/14 09:32:05;;;;;;;3.53;2.25;;;25.00;83.10;;;;;;6535048;21;20078;-89
2024/04/14 09:34:40;;;;;;;7.47;2.50;;;24.90;83.00;;;;;;6578947;21;20012;-91
2024/04/14 09:37:12;;;;;;;5.97;2.60;;;25.10;84.10;;;;;;6581909;21;19996;-92
2024/04/14 09:39:42;;;;;;;8.00;2.13;;;25.00;82.50;;;;;;6581388;21;20051;-89
2024/04/14 09:42:15;;;;;;;3.80;2.22;;;25.10;81.90;;;;;;6578750;21;20000;-89
2024/04/14 09:44:44;;;;;;;3.97;2.15;;;25.40;83.60;;;;;;6533648;21;20012;-89
2024/04/14 09:47:16;;;;;;;4.78;2.25;;;25.50;82.80;;;;;;6534073;21;20077;-91
2024/04/14 09:49:47;;;;;;;4.88;2.15;;;25.40;81.40;;;;;;6531526;21;20000;-91
2024/04/14 09:52:20;;;;;;;6.38;2.40;;;25.50;81.30;;;;;;6574645;21;20012;-92
2024/04/14 09:54:48;;;;;;;5.03;2.20;;;25.80;82.60;;;;;;6518180;21;20080;-92
2024/04/14 09:57:21;;;;;;;3.45;1.73;;;26.10;81.00;;;;;;6535045;21;20019;-94
2024/04/14 09:59:49;;;;;;;6.07;2.60;;;26.10;81.60;;;;;;6577849;21;20004;-92
2024/04/14 10:02:28;;;;;;;4.45;2.00;;;26.30;80.80;;;;;;6532485;21;20004;-94
2024/04/14 10:05:01;;;;;;;3.03;2.22;;;26.30;79.50;;;;;;6577086;21;20019;-93
2024/04/14 10:07:32;;;;;;;5.68;2.00;;;26.30;79.90;;;;;;6532441;21;20078;-91
2024/04/14 10:10:00;;;;;;;4.80;1.85;;;26.40;79.10;;;;;;6528974;21;20010;-90
2024/04/14 10:12:34;;;;;;;4.25;2.30;;;26.50;79.20;;;;;;6534938;21;20005;-93
2024/04/14 10:15:03;;;;;;;6.35;2.40;;;26.40;78.30;;;;;;6534701;21;20340;-92
2024/04/14 10:17:38;;;;;;;4.22;2.50;;;26.40;77.20;;;;;;6537391;21;19996;-89
2024/04/14 10:20:12;;;;;;;2.75;1.90;;;26.60;78.70;;;;;;6535317;21;20044;-89
2024/04/14 10:22:44;;;;;;;5.28;2.13;;;26.70;77.40;;;;;;6582718;21;20300;-89
2024/04/14 10:25:19;;;;;;;7.10;2.38;;;26.60;74.80;;;;;;6531955;21;20360;-95
2024/04/14 10:27:50;;;;;;;4.05;1.92;;;26.50;76.10;;;;;;6580039;21;20013;-92
2024/04/14 10:30:20;;;;;;;6.73;2.40;;;26.70;75.30;;;;;;6536939;21;19997;-92
2024/04/14 10:33:04;;;;;;;5.03;1.70;;;26.80;75.50;;;;;;6534509;21;20002;-94
2024/04/14 10:35:34;;;;;;;5.30;1.80;;;26.80;73.30;;;;;;6535683;21;20004;-93
2024/04/14 10:38:05;;;;;;;2.15;1.30;;;26.70;73.50;;;;;;6581920;21;20004;-93
2024/04/14 10:40:37;;;;;;;4.25;1.70;;;26.70;70.60;;;;;;6535330;21;20019;-95
2024/04/14 10:43:16;;;;;;;4.60;1.80;;;26.90;72.40;;;;;;6535987;21;20016;-92
2024/04/14 10:45:43;;;;;;;4.13;1.48;;;26.80;69.00;;;;;;6534823;21;20012;-92
2024/04/14 10:48:14;;;;;;;2.83;1.15;;;26.70;69.40;;;;;;6579447;21;20000;-92
2024/04/14 10:50:45;;;;;;;3.88;1.85;;;26.60;69.40;;;;;;6582041;21;19997;-96
2024/04/14 10:53:17;;;;;;;4.70;1.65;;;26.80;68.50;;;;;;6534167;21;20011;-96
2024/04/14 10:55:45;;;;;;;3.97;1.40;;;26.80;69.60;;;;;;6536402;21;20008;-92
2024/04/14 10:58:15;;;;;;;2.63;1.02;;;26.90;69.00;;;;;;6577841;21;20000;-95
2024/04/14 11:00:43;;;;;;;2.78;1.48;;;27.00;69.50;;;;;;6533366;21;20017;-95
2024/04/14 11:03:15;;;;;;;6.10;2.67;;;27.20;69.30;;;;;;6578987;21;20004;-93
2024/04/14 11:05:46;;;;;;;4.60;2.00;;;27.20;71.00;;;;;;6580893;21;20036;-91
2024/04/14 11:08:17;;;;;;;4.07;1.90;;;27.20;70.40;;;;;;6577944;21;20012;-93
2024/04/14 11:10:46;;;;;;;3.00;1.50;;;27.20;70.70;;;;;;6533325;21;20453;-95
2024/04/14 11:13:19;;;;;;;4.15;1.85;;;27.10;69.20;;;;;;6533898;21;19997;-90
2024/04/14 11:15:47;;;;;;;4.38;1.65;;;27.10;70.20;;;;;;6580234;21;20432;-93
2024/04/14 11:18:18;;;;;;;2.40;1.45;;;27.10;70.30;;;;;;6580758;21;20003;-94
2024/04/14 11:20:51;;;;;;;4.82;2.08;;;27.40;71.30;;;;;;6535721;21;20071;-92
2024/04/14 11:23:24;;;;;;;4.60;1.95;;;27.40;72.10;;;;;;6528493;21;20014;-89
2024/04/14 11:25:52;;;;;;;2.30;1.70;;;27.30;71.70;;;;;;6579617;21;20004;-93
2024/04/14 11:28:23;;;;;;;2.83;1.30;;;27.30;71.10;;;;;;6534060;21;20000;-93
2024/04/14 11:30:51;;;;;;;9.95;2.00;;;27.30;71.00;;;;;;6535043;21;20488;-96
2024/04/14 11:33:24;;;;;;;4.32;1.50;;;27.30;70.00;;;;;;6531378;21;20012;-93
2024/04/14 11:35:59;;;;;;;3.92;1.98;;;27.70;70.90;;;;;;6531207;21;20020;-93
2024/04/14 11:38:31;;;;;;;3.65;1.45;;;27.90;71.10;;;;;;6527647;21;20000;-92
2024/04/14 11:40:59;;;;;;;2.60;1.90;;;27.90;69.70;;;;;;6574850;21;20000;-95
2024/04/14 11:43:30;;;;;;;3.47;1.40;;;27.90;69.50;;;;;;6531715;21;20047;-93
2024/04/14 11:45:57;;;;;;;3.35;1.77;;;27.80;71.20;;;;;;6530083;21;20013;-91
2024/04/14 11:48:28;;;;;;;4.72;1.67;;;27.80;70.90;;;;;;6533058;21;20409;-93
2024/04/14 11:50:59;;;;;;;5.20;1.50;;;27.50;68.80;;;;;;6519704;21;20079;-91
2024/04/14 11:53:30;;;;;;;3.53;1.50;;;27.40;69.70;;;;;;6577349;21;20019;-95
2024/04/14 11:56:00;;;;;;;4.70;1.85;;;27.40;69.40;;;;;;6531392;21;20078;-92
2024/04/14 11:58:28;;;;;;;4.28;1.52;;;27.40;70.30;;;;;;6576807;21;20437;-90
2024/04/14 12:00:59;;;;;;;2.75;1.60;;;27.40;70.00;;;;;;6531314;21;20405;-91
2024/04/14 12:03:27;;;;;;;8.20;2.07;;;27.40;70.40;;;;;;6531779;21;20032;-93
2024/04/14 12:06:01;;;;;;;4.30;1.60;;;27.40;72.10;;;;;;6577335;21;19993;-92
2024/04/14 12:08:29;;;;;;;3.78;1.73;;;27.30;69.90;;;;;;6531412;21;20001;-96
2024/04/14 12:11:00;;;;;;;2.63;1.38;;;27.40;68.50;;;;;;6531168;21;20475;-94
2024/04/14 12:13:29;;;;;;;2.72;1.00;;;27.30;66.80;;;;;;6532849;21;20000;-91
2024/04/14 12:16:00;;;;;;;3.13;1.30;;;27.30;65.10;;;;;;6576944;21;20007;-91
2024/04/14 12:18:28;;;;;;;7.53;2.30;;;27.40;66.80;;;;;;6575768;21;20289;-92
2024/04/14 12:21:02;;;;;;;3.75;1.13;;;27.60;67.20;;;;;;6531457;21;20008;-95
2024/04/14 12:23:30;;;;;;;1.92;0.55;;;27.50;63.80;;;;;;6531636;21;20004;-91
2024/04/14 12:26:01;;;;;;;2.90;1.10;;;27.50;62.70;;;;;;6575283;21;20028;-89
2024/04/14 12:28:28;;;;;;;2.10;1.02;;;27.40;63.10;;;;;;6532608;21;20015;-88
2024/04/14 12:31:01;;;;;;;2.05;0.70;;;27.50;63.20;;;;;;6528481;21;20052;-90
2024/04/14 12:33:29;;;;;;;4.22;0.90;;;27.40;61.50;;;;;;6525528;21;20019;-90
2024/04/14 12:36:02;;;;;;;4.05;0.93;;;27.40;61.80;;;;;;6572596;21;20070;-88
2024/04/14 12:38:32;;;;;;;2.88;0.68;;;27.50;61.60;;;;;;6574935;21;20011;-90
2024/04/14 12:41:03;;;;;;;4.30;0.95;;;27.40;60.60;;;;;;6531165;21;19996;-91
2024/04/14 12:43:32;;;;;;;3.25;1.52;;;27.40;60.60;;;;;;6531816;21;20001;-91
2024/04/14 12:46:04;;;;;;;1.45;1.10;;;27.30;60.80;;;;;;6578160;21;20008;-89
2024/04/14 12:48:32;;;;;;;3.65;0.80;;;27.30;60.50;;;;;;6579655;21;20012;-94
2024/04/14 12:51:07;;;;;;;2.67;0.70;;;27.10;60.00;;;;;;6532412;21;20000;-89
2024/04/14 12:53:35;;;;;;;3.92;1.50;;;27.20;61.40;;;;;;6533775;21;20001;-90
2024/04/14 12:56:07;;;;;;;5.28;1.65;;;27.20;62.20;;;;;;6529974;21;20078;-94
2024/04/14 12:58:35;;;;;;;4.45;1.27;;;27.20;61.30;;;;;;6530879;21;20012;-92
2024/04/14 13:01:05;;;;;;;1.85;1.00;;;27.10;62.20;;;;;;6576604;21;20012;-88
2024/04/14 13:03:34;;;;;;;2.63;1.17;;;27.10;62.10;;;;;;6532125;21;20305;-93
2024/04/14 13:06:08;;;;;;;4.63;2.15;;;27.00;61.50;;;;;;6531840;21;20000;-89
2024/04/14 13:08:35;;;;;;;4.45;1.40;;;27.00;62.50;;;;;;6532603;21;20004;-92
2024/04/14 13:11:08;;;;;;;3.63;0.60;;;26.90;62.70;;;;;;6579169;21;20033;-93
2024/04/14 13:13:37;;;;;;;3.65;0.77;;;27.00;62.70;;;;;;6489553;21;20032;-90
2024/04/14 13:16:08;;;;;;;2.58;0.93;;;27.00;63.10;;;;;;6532749;21;20075;-92
2024/04/14 13:18:36;;;;;;;2.90;0.88;;;26.90;61.60;;;;;;6577601;21;20004;-91
2024/04/14 13:21:10;;;;;;;3.90;1.38;;;26.90;61.20;;;;;;6533272;21;20017;-90
2024/04/14 13:23:38;;;;;;;8.90;2.95;;;26.90;62.40;;;;;;6533267;21;20036;-90
2024/04/14 13:26:11;;;;;;;3.22;0.93;;;26.90;62.40;;;;;;6577861;21;20293;-91
2024/04/14 13:28:38;;;;;;;3.40;1.00;;;26.80;62.10;;;;;;6533803;21;20078;-93
2024/04/14 13:31:09;;;;;;;5.68;1.70;;;26.90;62.10;;;;;;6490381;21;20023;-90
2024/04/14 13:33:37;;;;;;;3.70;1.70;;;26.90;64.20;;;;;;6531811;21;20033;-93
2024/04/14 13:36:12;;;;;;;3.90;1.92;;;26.80;63.40;;;;;;6579207;21;20029;-92
2024/04/14 13:38:39;;;;;;;3.95;1.70;;;26.90;65.60;;;;;;6578873;21;20012;-92
2024/04/14 13:41:10;;;;;;;3.28;1.52;;;26.80;66.70;;;;;;6533061;21;20326;-91
2024/04/14 13:43:38;;;;;;;6.45;1.50;;;26.80;68.10;;;;;;6578780;21;20001;-90
2024/04/14 13:46:09;;;;;;;4.60;1.02;;;26.70;66.40;;;;;;6532062;21;20001;-92
2024/04/14 13:48:37;;;;;;;3.33;1.10;;;26.70;66.90;;;;;;6575907;21;20437;-91
2024/04/14 13:51:08;;;;;;;4.40;1.27;;;26.70;66.60;;;;;;6531152;21;20009;-91
2024/04/14 13:53:38;;;;;;;1.40;0.82;;;26.60;66.20;;;;;;6575353;21;20006;-93
2024/04/14 13:56:09;;;;;;;5.32;1.42;;;26.60;65.90;;;;;;6532850;21;20005;-92
2024/04/14 13:58:37;;;;;;;3.40;0.73;;;26.50;66.50;;;;;;6489558;21;20008;-93
2024/04/14 14:01:08;;;;;;;4.10;1.00;;;26.40;66.20;;;;;;6532161;21;20012;-93
2024/04/14 14:03:38;;;;;;;7.63;1.10;;;26.30;66.60;;;;;;6529925;21;20004;-94
2024/04/14 14:06:09;;;;;;;2.05;0.95;;;26.30;65.10;;;;;;6529348;21;20016;-95
2024/04/14 14:08:40;;;;;;;1.70;1.20;;;26.40;65.00;;;;;;6527677;21;20498;-92
2024/04/14 14:11:10;;;;;;;2.42;0.98;;;26.40;65.10;;;;;;6530398;21;19997;-91
2024/04/14 14:13:38;;;;;;;6.63;2.60;;;26.40;64.20;;;;;;6531237;21;20015;-92
2024/04/14 14:16:10;;;;;;;1.98;0.88;;;26.60;63.90;;;;;;6576971;21;20299;-92
2024/04/14 14:18:38;;;;;;;;;;;26.60;63.60;;;;;;6530664;21;20001;-95
2024/04/14 14:21:08;;;;;;;1.38;0.93;;;26.70;63.90;;;;;;6532955;21;19921;-92
2024/04/14 14:23:39;;;;;;;3.08;0.73;;;26.80;63.80;;;;;;6575244;21;20040;-92
2024/04/14 14:26:10;;;;;;;4.25;0.73;;;26.90;63.10;;;;;;6573324;21;20017;-92
2024/04/14 14:28:37;;;;;;;2.33;0.50;;;26.90;63.80;;;;;;6530991;21;20024;-92
2024/04/14 14:31:08;;;;;;;1.25;0.55;;;27.00;62.80;;;;;;6576144;21;20330;-92
2024/04/14 14:36:30;;;;;;;2.25;0.75;;;27.10;61.60;;;;;;6576758;21;19997;-89
2024/04/14 14:39:04;;;;;;;3.03;0.70;;;27.10;60.40;;;;;;6575457;21;20032;-94
2024/04/14 14:41:36;;;;;;;2.47;0.65;;;27.10;61.70;;;;;;6530197;21;20446;-95
2024/04/14 14:44:05;;;;;;;1.92;0.70;;;27.10;61.80;;;;;;6530229;21;20000;-94
2024/04/14 14:46:36;;;;;;;2.45;1.15;;;27.20;62.70;;;;;;6576539;21;20013;-95
2024/04/14 14:49:04;;;;;;;5.63;1.33;;;27.20;61.60;;;;;;6574569;21;19997;-94
2024/04/14 14:51:35;;;;;;;3.78;0.93;;;27.20;61.50;;;;;;6579256;21;20008;-93
2024/04/14 14:54:07;;;;;;;1.88;0.80;;;27.30;61.10;;;;;;6530174;21;20001;-90
2024/04/14 14:56:41;;;;;;;2.55;0.88;;;27.20;60.70;;;;;;6532084;21;20008;-89
2024/04/14 14:59:09;;;;;;;5.13;0.90;;;27.30;61.80;;;;;;6532570;21;19997;-92
2024/04/14 15:01:39;;;;;;;5.32;0.75;;;27.10;61.80;;;;;;6533149;21;20032;-90
2024/04/14 15:04:07;;;;;;;3.00;1.15;;;27.20;62.60;;;;;;6533271;21;20005;-92
2024/04/14 15:06:39;;;;;;;4.03;1.13;;;27.20;61.80;;;;;;6533701;21;20047;-89
2024/04/14 15:09:10;;;;;;;3.65;1.40;;;27.20;62.50;;;;;;6576557;21;20004;-91
2024/04/14 15:11:41;;;;;;;1.60;0.70;;;27.30;63.20;;;;;;6578525;21;20699;-91
2024/04/14 15:14:09;;;;;;;3.72;1.27;;;27.30;63.80;;;;;;6575795;21;20024;-92
2024/04/14 15:16:42;;;;;;;4.38;1.52;;;27.30;64.10;;;;;;6532011;21;19997;-93
2024/04/14 15:19:10;;;;;;;2.70;0.95;;;27.40;64.20;;;;;;6532682;21;19996;-91
2024/04/14 15:21:41;;;;;;;4.82;1.40;;;27.40;63.80;;;;;;6533067;21;20449;-91
2024/04/14 15:24:11;;;;;;;3.00;1.20;;;27.30;63.50;;;;;;6532025;21;20100;-92
2024/04/14 15:26:43;;;;;;;3.05;1.23;;;27.30;64.40;;;;;;6576280;21;20000;-92
2024/04/14 15:29:11;;;;;;;2.85;0.90;;;27.30;64.60;;;;;;6534174;21;20011;-91
2024/04/14 15:31:42;;;;;;;1.33;0.80;;;27.30;63.90;;;;;;6580267;21;20000;-96
2024/04/14 15:34:10;;;;;;;3.40;1.08;;;27.20;64.00;;;;;;6534029;21;20078;-92
2024/04/14 15:36:41;;;;;;;3.72;1.55;;;27.20;64.00;;;;;;6493163;21;20015;-92
2024/04/14 15:39:11;;;;;;;2.40;0.98;;;27.10;65.40;;;;;;6535769;21;20488;-91